createdAt,value
2022-12-16T00:00:22.758Z,24.75
2022-12-16T00:02:51.603Z,26.27
2022-12-16T00:05:22.745Z,29.00
2022-12-16T00:07:50.673Z,27.02
2022-12-16T00:10:18.612Z,26.35
2022-12-16T00:12:46.566Z,25.85
2022-12-16T00:15:14.431Z,24.80
2022-12-16T00:17:42.317Z,25.15
2022-12-16T00:20:11.071Z,23.20
2022-12-16T00:22:39.028Z,24.50
2022-12-16T00:25:07.233Z,24.80
2022-12-16T00:27:35.872Z,24.17
2022-12-16T00:30:04.159Z,24.33
2022-12-16T00:32:32.086Z,25.92
2022-12-16T00:35:00.098Z,27.60
2022-12-16T00:37:29.325Z,22.25
2022-12-16T00:39:57.203Z,24.08
2022-12-16T00:42:25.098Z,24.58
2022-12-16T00:44:52.964Z,23.95
2022-12-16T00:47:22.712Z,28.38
2022-12-16T00:49:50.554Z,21.25
2022-12-16T00:52:18.437Z,21.88
2022-12-16T00:54:46.391Z,22.70
2022-12-16T00:57:14.768Z,24.60
2022-12-16T00:59:42.820Z,21.80
2022-12-16T01:02:12.100Z,22.95
2022-12-16T01:04:40.132Z,25.00
2022-12-16T01:07:08.145Z,21.52
2022-12-16T01:09:36.997Z,24.52
2022-12-16T01:12:05.236Z,23.75
2022-12-16T01:14:33.446Z,24.90
2022-12-16T01:17:02.553Z,20.90
2022-12-16T01:19:30.433Z,24.30
2022-12-16T01:21:58.295Z,24.30
2022-12-16T01:24:26.245Z,26.48
2022-12-16T01:26:54.317Z,24.85
2022-12-16T01:29:22.274Z,22.20
2022-12-16T01:31:50.286Z,25.60
2022-12-16T01:34:18.505Z,27.35
2022-12-16T01:36:48.815Z,26.15
2022-12-16T01:39:16.789Z,27.30
2022-12-16T01:41:46.458Z,26.45
2022-12-16T01:44:35.457Z,29.45
2022-12-16T01:47:06.355Z,24.48
2022-12-16T01:49:44.539Z,27.52
2022-12-16T01:52:26.427Z,27.45
2022-12-16T01:55:19.558Z,26.20
2022-12-16T01:57:55.406Z,28.88
2022-12-16T02:00:23.715Z,28.42
2022-12-16T02:02:54.349Z,27.70
2022-12-16T02:05:24.468Z,28.00
2022-12-16T02:08:17.940Z,25.05
2022-12-16T02:10:46.004Z,26.40
2022-12-16T02:13:22.696Z,28.77
2022-12-16T02:16:10.766Z,27.50
2022-12-16T02:18:56.835Z,27.38
2022-12-16T02:21:53.737Z,25.45
2022-12-16T02:24:51.134Z,27.92
2022-12-16T02:28:02.021Z,28.27
2022-12-16T02:30:47.218Z,27.08
2022-12-16T02:33:49.700Z,31.27
2022-12-16T02:36:33.416Z,32.58
2022-12-16T02:39:13.699Z,35.53
2022-12-16T02:41:56.805Z,29.00
2022-12-16T02:44:35.802Z,25.45
2022-12-16T02:47:03.946Z,29.15
2022-12-16T02:49:31.742Z,31.05
2022-12-16T02:52:01.845Z,28.58
2022-12-16T02:54:30.588Z,27.50
2022-12-16T02:57:23.689Z,28.75
2022-12-16T03:00:09.953Z,27.13
2022-12-16T03:03:03.500Z,27.95
2022-12-16T03:05:46.763Z,26.88
2022-12-16T03:08:19.668Z,27.42
2022-12-16T03:10:53.878Z,28.42
2022-12-16T03:13:24.537Z,24.75
2022-12-16T03:15:55.278Z,25.75
2022-12-16T03:18:24.305Z,27.45
2022-12-16T03:21:06.384Z,29.08
2022-12-16T03:23:45.424Z,27.70
2022-12-16T03:26:28.362Z,24.80
2022-12-16T03:29:16.898Z,25.52
2022-12-16T03:31:50.774Z,22.00
2022-12-16T03:34:39.118Z,26.88
2022-12-16T03:37:09.962Z,26.55
2022-12-16T03:39:45.297Z,27.02
2022-12-16T03:42:16.034Z,22.90
2022-12-16T03:44:47.798Z,24.85
2022-12-16T03:47:19.962Z,23.00
2022-12-16T03:49:51.518Z,23.75
2022-12-16T03:52:19.537Z,28.15
2022-12-16T03:54:47.665Z,22.58
2022-12-16T03:57:15.946Z,24.80
2022-12-16T03:59:44.490Z,26.02
2022-12-16T04:02:12.544Z,26.08
2022-12-16T04:04:40.561Z,26.52
2022-12-16T04:07:25.457Z,25.55
2022-12-16T04:09:57.739Z,25.90
2022-12-16T04:12:44.462Z,24.35
2022-12-16T04:15:39.432Z,27.27
2022-12-16T04:18:36.057Z,26.92
2022-12-16T04:21:27.406Z,27.40
2022-12-16T04:27:03.063Z,25.17
2022-12-16T04:29:33.669Z,24.23
2022-12-16T04:32:02.449Z,25.73
2022-12-16T04:34:30.763Z,25.70
2022-12-16T04:37:22.748Z,27.60
2022-12-16T04:40:09.148Z,23.45
2022-12-16T04:42:55.768Z,24.65
2022-12-16T04:45:42.350Z,24.33
2022-12-16T04:48:28.877Z,24.77
2022-12-16T04:51:15.283Z,22.55
2022-12-16T04:54:01.645Z,23.60
2022-12-16T04:56:51.085Z,23.50
2022-12-16T04:59:37.538Z,25.45
2022-12-16T05:02:23.965Z,21.48
2022-12-16T05:05:10.550Z,22.13
2022-12-16T05:07:56.934Z,20.17
2022-12-16T05:10:43.379Z,23.98
2022-12-16T05:13:29.846Z,19.98
2022-12-16T05:16:16.996Z,21.08
2022-12-16T05:19:03.940Z,19.48
2022-12-16T05:21:54.953Z,20.88
2022-12-16T05:24:41.704Z,24.33
2022-12-16T05:27:30.059Z,21.60
2022-12-16T05:30:16.391Z,21.95
2022-12-16T05:33:03.360Z,20.58
2022-12-16T05:35:50.100Z,23.17
2022-12-16T05:38:36.787Z,20.85
2022-12-16T05:41:23.161Z,23.77
2022-12-16T05:44:09.860Z,22.88
2022-12-16T05:46:56.323Z,23.80
2022-12-16T05:49:43.550Z,20.48
2022-12-16T05:52:30.261Z,21.90
2022-12-16T05:55:16.666Z,21.92
2022-12-16T05:58:03.190Z,25.80
2022-12-16T06:00:50.279Z,20.00
2022-12-16T06:03:37.263Z,21.85
2022-12-16T06:06:26.917Z,23.52
2022-12-16T06:09:13.448Z,20.90
2022-12-16T06:12:00.357Z,19.83
2022-12-16T06:14:46.797Z,20.48
2022-12-16T06:17:33.284Z,20.73
2022-12-16T06:20:19.752Z,20.45
2022-12-16T06:23:13.404Z,17.83
2022-12-16T06:26:00.414Z,20.17
2022-12-16T06:28:48.124Z,21.50
2022-12-16T06:31:34.573Z,21.30
2022-12-16T06:34:22.367Z,22.30
2022-12-16T06:37:09.065Z,20.60
2022-12-16T06:39:55.855Z,19.65
2022-12-16T06:42:42.762Z,19.60
2022-12-16T06:45:34.523Z,17.40
2022-12-16T06:48:21.314Z,16.88
2022-12-16T06:51:07.784Z,21.15
2022-12-16T06:53:54.206Z,19.20
2022-12-16T06:56:40.554Z,18.38
2022-12-16T06:59:26.881Z,15.85
2022-12-16T07:02:13.357Z,20.30
2022-12-16T07:04:59.767Z,18.40
2022-12-16T07:07:46.276Z,18.65
2022-12-16T07:10:32.706Z,16.05
2022-12-16T07:13:22.671Z,18.00
2022-12-16T07:16:13.794Z,19.15
2022-12-16T07:19:00.290Z,19.15
2022-12-16T07:21:47.003Z,14.77
2022-12-16T07:24:33.308Z,17.30
2022-12-16T07:27:19.674Z,15.82
2022-12-16T07:30:06.167Z,16.23
2022-12-16T07:32:52.859Z,19.92
2022-12-16T07:35:39.267Z,20.27
2022-12-16T07:38:25.717Z,16.48
2022-12-16T07:41:12.146Z,13.38
2022-12-16T07:43:58.466Z,16.35
2022-12-16T07:46:44.877Z,14.52
2022-12-16T07:49:31.313Z,17.80
2022-12-16T07:52:17.955Z,17.67
2022-12-16T07:55:04.474Z,17.63
2022-12-16T07:58:10.591Z,20.88
2022-12-16T08:00:57.346Z,17.00
2022-12-16T08:03:44.094Z,17.85
2022-12-16T08:06:30.809Z,18.65
2022-12-16T08:09:17.397Z,20.73
2022-12-16T08:12:04.461Z,25.40
2022-12-16T08:14:50.748Z,24.17
2022-12-16T08:17:39.297Z,20.77
2022-12-16T08:20:30.678Z,18.77
2022-12-16T08:23:17.304Z,19.80
2022-12-16T08:26:03.682Z,21.52
2022-12-16T08:28:53.620Z,18.95
2022-12-16T08:31:39.997Z,20.05
2022-12-16T08:34:26.624Z,21.75
2022-12-16T08:37:14.154Z,21.45
2022-12-16T08:43:12.777Z,20.30
2022-12-16T08:46:00.408Z,19.05
2022-12-16T08:48:47.386Z,21.98
2022-12-16T08:51:33.929Z,20.75
2022-12-16T08:54:20.655Z,19.27
2022-12-16T08:57:07.037Z,22.45
2022-12-16T08:59:53.503Z,23.45
2022-12-16T09:02:40.341Z,18.65
2022-12-16T09:05:27.376Z,18.80
2022-12-16T09:08:20.045Z,18.25
2022-12-16T09:11:06.650Z,21.73
2022-12-16T09:13:53.103Z,18.83
2022-12-16T09:16:39.669Z,21.40
2022-12-16T09:19:26.267Z,17.88
2022-12-16T09:22:12.476Z,19.08
2022-12-16T09:24:59.582Z,21.13
2022-12-16T09:27:45.959Z,22.23
2022-12-16T09:30:32.879Z,21.48
2022-12-16T09:33:24.190Z,18.98
2022-12-16T09:36:10.655Z,20.25
2022-12-16T09:38:57.105Z,19.75
2022-12-16T09:41:46.609Z,18.40
2022-12-16T09:44:45.221Z,16.80
2022-12-16T09:47:43.135Z,19.10
2022-12-16T09:50:43.933Z,16.10
2022-12-16T09:53:34.336Z,17.90
2022-12-16T09:56:24.970Z,16.97
2022-12-16T09:59:18.002Z,19.35
2022-12-16T10:02:04.899Z,18.65
2022-12-16T10:04:52.360Z,21.13
2022-12-16T10:07:41.168Z,21.45
2022-12-16T10:10:56.949Z,21.42
2022-12-16T10:14:08.477Z,19.48
2022-12-16T10:17:04.170Z,19.00
2022-12-16T10:20:38.132Z,19.92
2022-12-16T10:23:41.916Z,18.23
2022-12-16T10:26:40.410Z,19.90
2022-12-16T10:29:38.214Z,17.75
2022-12-16T10:32:47.024Z,20.08
2022-12-16T10:35:59.980Z,20.15
2022-12-16T10:39:17.754Z,21.15
2022-12-16T10:42:09.892Z,20.85
2022-12-16T10:45:17.525Z,22.90
2022-12-16T10:48:07.125Z,23.13
2022-12-16T10:50:53.856Z,20.48
2022-12-16T10:53:46.613Z,23.92
2022-12-16T10:57:07.232Z,22.02
2022-12-16T10:59:56.621Z,20.70
2022-12-16T11:02:48.784Z,20.30
2022-12-16T11:05:54.943Z,21.90
2022-12-16T11:08:47.586Z,24.77
2022-12-16T11:11:52.779Z,23.40
2022-12-16T11:15:05.944Z,22.38
2022-12-16T11:17:57.366Z,21.73
2022-12-16T11:20:45.925Z,20.77
2022-12-16T11:23:42.971Z,26.52
2022-12-16T11:26:46.991Z,24.67
2022-12-16T11:29:36.317Z,21.98
2022-12-16T11:32:41.225Z,23.95
2022-12-16T11:35:36.742Z,22.75
2022-12-16T11:38:25.559Z,22.10
2022-12-16T11:41:13.220Z,23.55
2022-12-16T11:44:01.930Z,26.45
2022-12-16T11:46:51.414Z,24.40
2022-12-16T11:49:47.642Z,22.83
2022-12-16T11:52:38.506Z,23.15
2022-12-16T11:56:06.587Z,22.58
2022-12-16T11:59:14.525Z,24.27
2022-12-16T12:02:16.999Z,28.00
2022-12-16T12:05:03.972Z,25.05
2022-12-16T12:08:16.918Z,23.08
2022-12-16T12:11:29.508Z,23.58
2022-12-16T12:14:26.217Z,21.85
2022-12-16T12:17:39.017Z,26.55
2022-12-16T12:20:53.811Z,24.20
2022-12-16T12:24:12.788Z,24.50
2022-12-16T12:27:09.526Z,32.45
2022-12-16T12:30:16.701Z,22.42
2022-12-16T12:33:24.995Z,24.88
2022-12-16T12:36:36.377Z,22.92
2022-12-16T12:39:33.805Z,24.88
2022-12-16T12:42:44.305Z,22.90
2022-12-16T12:45:57.911Z,23.25
2022-12-16T12:48:53.020Z,22.83
2022-12-16T12:51:57.140Z,19.35
2022-12-16T12:55:04.772Z,22.27
2022-12-16T12:57:54.260Z,24.63
2022-12-16T13:00:45.989Z,23.63
2022-12-16T13:03:54.203Z,27.73
2022-12-16T13:06:43.033Z,22.77
2022-12-16T13:09:46.456Z,22.50
2022-12-16T13:12:35.998Z,24.10
2022-12-16T13:15:47.450Z,22.65
2022-12-16T13:18:48.316Z,23.17
2022-12-16T13:21:58.190Z,22.58
2022-12-16T13:24:56.441Z,27.33
2022-12-16T13:27:50.680Z,23.67
2022-12-16T13:30:39.911Z,25.90
2022-12-16T13:33:46.789Z,24.77
2022-12-16T13:36:35.943Z,23.30
2022-12-16T13:39:47.343Z,23.95
2022-12-16T13:42:52.427Z,22.42
2022-12-16T13:45:50.476Z,30.13
2022-12-16T13:49:06.450Z,27.05
2022-12-16T13:52:02.271Z,23.15
2022-12-16T13:54:52.693Z,25.35
2022-12-16T13:57:43.045Z,28.75
2022-12-16T14:00:48.437Z,28.30
2022-12-16T14:03:59.240Z,26.35
2022-12-16T14:06:47.805Z,22.88
2022-12-16T14:09:59.316Z,24.92
2022-12-16T14:16:12.928Z,25.92
2022-12-16T14:19:11.487Z,26.38
2022-12-16T14:22:08.665Z,25.67
2022-12-16T14:25:07.230Z,24.02
2022-12-16T14:27:55.304Z,26.90
2022-12-16T14:30:47.999Z,27.45
2022-12-16T14:33:45.787Z,27.77
2022-12-16T14:36:48.650Z,25.95
2022-12-16T14:39:47.489Z,26.55
2022-12-16T14:42:44.198Z,23.50
2022-12-16T14:45:41.423Z,27.33
2022-12-16T14:48:54.576Z,25.27
2022-12-16T14:51:43.601Z,31.83
2022-12-16T14:54:43.811Z,29.10
2022-12-16T14:57:35.024Z,28.90
2022-12-16T15:00:30.665Z,24.38
2022-12-16T15:03:29.512Z,27.35
2022-12-16T15:06:17.332Z,23.73
2022-12-16T15:09:17.568Z,31.02
2022-12-16T15:12:04.724Z,26.75
2022-12-16T15:14:58.916Z,32.72
2022-12-16T15:17:50.220Z,29.40
2022-12-16T15:23:38.941Z,27.42
2022-12-16T15:26:26.887Z,28.60
2022-12-16T15:29:13.210Z,25.42
2022-12-16T15:32:03.766Z,28.65
2022-12-16T15:35:08.522Z,26.58
2022-12-16T15:38:04.549Z,30.17
2022-12-16T15:40:55.313Z,40.17
2022-12-16T15:43:54.824Z,36.35
2022-12-16T15:46:49.509Z,41.17
2022-12-16T15:50:03.604Z,33.28
2022-12-16T15:53:00.936Z,32.97
2022-12-16T15:56:04.500Z,32.65
2022-12-16T15:58:54.676Z,33.72
2022-12-16T16:01:47.428Z,27.63
2022-12-16T16:04:44.568Z,30.20
2022-12-16T16:07:39.896Z,26.75
2022-12-16T16:10:42.495Z,24.30
2022-12-16T16:13:30.277Z,23.90
2022-12-16T16:16:31.013Z,26.02
2022-12-16T16:19:17.865Z,27.60
2022-12-16T16:22:04.418Z,25.42
2022-12-16T16:24:50.816Z,28.40
2022-12-16T16:27:38.491Z,24.92
2022-12-16T16:30:25.664Z,24.42
2022-12-16T16:33:12.012Z,27.77
2022-12-16T16:35:58.420Z,27.65
2022-12-16T16:38:45.904Z,24.33
2022-12-16T16:41:35.200Z,24.92
2022-12-16T16:44:21.650Z,26.15
2022-12-16T16:47:08.384Z,26.30
2022-12-16T16:50:00.190Z,26.50
2022-12-16T16:52:47.703Z,29.30
2022-12-16T16:55:37.454Z,26.92
2022-12-16T16:58:43.445Z,28.83
2022-12-16T17:01:35.119Z,27.08
2022-12-16T17:04:29.288Z,33.35
2022-12-16T17:07:23.787Z,32.15
2022-12-16T17:13:22.764Z,35.00
2022-12-16T17:16:17.896Z,33.42
2022-12-16T17:19:05.933Z,33.33
2022-12-16T17:21:57.981Z,30.73
2022-12-16T17:24:54.767Z,29.25
2022-12-16T17:27:57.716Z,29.77
2022-12-16T17:31:00.708Z,27.10
2022-12-16T17:33:53.493Z,28.52
2022-12-16T17:36:43.134Z,26.48
2022-12-16T17:39:31.348Z,30.17
2022-12-16T17:42:17.640Z,29.42
2022-12-16T17:45:04.111Z,29.52
2022-12-16T17:47:50.515Z,28.30
2022-12-16T17:50:37.037Z,27.70
2022-12-16T17:53:23.499Z,34.28
2022-12-16T17:56:13.097Z,37.53
2022-12-16T17:59:05.711Z,35.00
2022-12-16T18:01:56.742Z,31.80
2022-12-16T18:04:43.675Z,32.85
2022-12-16T18:07:30.274Z,30.67
2022-12-16T18:10:16.716Z,30.02
2022-12-16T18:13:03.466Z,31.02
2022-12-16T18:15:50.023Z,30.20
2022-12-16T18:18:38.433Z,31.63
2022-12-16T18:21:33.192Z,32.63
2022-12-16T18:24:26.589Z,34.05
2022-12-16T18:27:13.935Z,34.35
2022-12-16T18:30:00.862Z,32.53
2022-12-16T18:32:50.379Z,36.15
2022-12-16T18:35:36.972Z,32.42
2022-12-16T18:38:23.702Z,33.83
2022-12-16T18:41:10.198Z,58.30
2022-12-16T18:43:56.738Z,59.67
2022-12-16T18:46:43.325Z,46.88
2022-12-16T18:49:29.967Z,43.90
2022-12-16T18:52:16.945Z,39.10
2022-12-16T18:55:03.490Z,46.05
2022-12-16T18:57:50.123Z,47.05
2022-12-16T19:00:37.179Z,35.80
2022-12-16T19:03:24.751Z,43.15
2022-12-16T19:06:16.030Z,43.97
2022-12-16T19:09:02.721Z,31.52
2022-12-16T19:11:49.124Z,35.50
2022-12-16T19:14:35.533Z,33.00
2022-12-16T19:17:22.048Z,32.50
2022-12-16T19:20:20.346Z,29.98
2022-12-16T19:23:20.121Z,30.92
2022-12-16T19:26:06.960Z,36.70
2022-12-16T19:28:54.154Z,36.10
2022-12-16T19:31:49.460Z,38.20
2022-12-16T19:34:35.935Z,40.35
2022-12-16T19:37:22.482Z,37.78
2022-12-16T19:40:14.850Z,38.38
2022-12-16T19:43:01.316Z,40.50
2022-12-16T19:45:47.944Z,38.03
2022-12-16T19:48:34.306Z,40.92
2022-12-16T19:51:22.180Z,36.20
2022-12-16T19:54:08.660Z,35.75
2022-12-16T19:57:01.689Z,39.72
2022-12-16T19:59:51.716Z,35.70
2022-12-16T20:02:41.167Z,42.88
2022-12-16T20:05:27.779Z,41.92
2022-12-16T20:08:14.302Z,40.83
2022-12-16T20:11:01.134Z,41.83
2022-12-16T20:13:56.102Z,46.50
2022-12-16T20:16:42.829Z,40.17
2022-12-16T20:19:29.223Z,38.22
2022-12-16T20:22:16.548Z,38.22
2022-12-16T20:25:26.587Z,40.88
2022-12-16T20:28:13.401Z,37.85
2022-12-16T20:31:03.139Z,39.65
2022-12-16T20:33:49.822Z,41.67
2022-12-16T20:36:36.505Z,40.58
2022-12-16T20:39:28.990Z,39.08
2022-12-16T20:42:15.793Z,38.15
2022-12-16T20:45:05.526Z,37.55
2022-12-16T20:47:52.099Z,39.90
2022-12-16T20:50:38.498Z,40.00
2022-12-16T20:53:25.454Z,38.80
2022-12-16T20:56:12.300Z,39.97
2022-12-16T20:58:58.880Z,40.22
2022-12-16T21:02:01.591Z,36.08
2022-12-16T21:04:51.909Z,37.88
2022-12-16T21:07:38.440Z,38.13
2022-12-16T21:10:29.893Z,39.88
2022-12-16T21:13:37.035Z,39.78
2022-12-16T21:16:26.287Z,40.60
2022-12-16T21:19:12.779Z,37.22
2022-12-16T21:21:59.361Z,43.03
2022-12-16T21:24:45.970Z,38.30
2022-12-16T21:27:34.820Z,37.58
2022-12-16T21:30:21.763Z,37.97
2022-12-16T21:33:10.357Z,37.95
2022-12-16T21:35:57.380Z,42.50
2022-12-16T21:38:43.897Z,37.75
2022-12-16T21:41:30.572Z,39.00
2022-12-16T21:44:17.549Z,40.40
2022-12-16T21:47:04.201Z,38.38
2022-12-16T21:49:50.785Z,40.38
2022-12-16T21:52:38.252Z,37.78
2022-12-16T21:55:25.182Z,39.33
2022-12-16T22:02:38.132Z,39.03
2022-12-16T22:05:27.719Z,37.17
2022-12-16T22:08:14.959Z,40.38
2022-12-16T22:11:01.401Z,38.78
2022-12-16T22:13:50.348Z,37.50
2022-12-16T22:16:36.845Z,40.05
2022-12-16T22:19:23.284Z,39.25
2022-12-16T22:22:10.351Z,39.97
2022-12-16T22:24:57.194Z,39.10
2022-12-16T22:27:43.595Z,38.42
2022-12-16T22:30:33.983Z,41.88
2022-12-16T22:33:40.272Z,37.03
2022-12-16T22:36:28.241Z,42.05
2022-12-16T22:39:14.907Z,42.13
2022-12-16T22:42:01.601Z,42.00
2022-12-16T22:44:48.013Z,41.53
2022-12-16T22:47:41.813Z,44.30
2022-12-16T22:50:32.050Z,41.13
2022-12-16T22:53:18.427Z,44.28
2022-12-16T22:56:19.037Z,40.35
2022-12-16T22:59:05.564Z,37.73
2022-12-16T23:01:55.182Z,38.55
2022-12-16T23:07:30.166Z,41.67
2022-12-16T23:10:16.597Z,40.88
2022-12-16T23:16:02.457Z,40.55
2022-12-16T23:18:49.247Z,40.42
2022-12-16T23:21:37.703Z,45.35
2022-12-16T23:24:25.055Z,45.80
2022-12-16T23:27:11.572Z,41.15
2022-12-16T23:29:58.045Z,42.50
2022-12-16T23:32:45.938Z,41.45
2022-12-16T23:35:32.707Z,41.85
2022-12-16T23:38:20.727Z,40.50
2022-12-16T23:41:07.679Z,40.75
2022-12-16T23:43:54.306Z,42.20
2022-12-16T23:46:43.055Z,40.08
2022-12-16T23:49:29.503Z,40.45
2022-12-16T23:52:15.940Z,40.20
2022-12-16T23:55:05.437Z,37.45
2022-12-16T23:57:56.156Z,36.20
